sensor_id;sensor_type;location;lat;lon;timestamp;P1;durP1;ratioP1;P2;durP2;ratioP2
47922;SDS011;33688;44.354;9.228;2023-04-03T00:01:39;0.50;;;0.50;;
47922;SDS011;33688;44.354;9.228;2023-04-03T00:04:05;0.55;;;0.50;;
47922;SDS011;33688;44.354;9.228;2023-04-03T00:06:31;0.50;;;0.50;;
47922;SDS011;33688;44.354;9.228;2023-04-03T00:08:57;0.60;;;0.40;;
47922;SDS011;33688;44.354;9.228;2023-04-03T00:11:23;0.40;;;0.40;;
47922;SDS011;33688;44.354;9.228;2023-04-03T00:13:50;0.43;;;0.43;;
47922;SDS011;33688;44.354;9.228;2023-04-03T00:16:15;0.43;;;0.40;;
47922;SDS011;33688;44.354;9.228;2023-04-03T00:18:41;0.35;;;0.35;;
47922;SDS011;33688;44.354;9.228;2023-04-03T00:21:07;1.10;;;0.60;;
47922;SDS011;33688;44.354;9.228;2023-04-03T00:23:35;0.85;;;0.70;;
47922;SDS011;33688;44.354;9.228;2023-04-03T00:26:00;0.80;;;0.60;;
47922;SDS011;33688;44.354;9.228;2023-04-03T00:28:27;0.80;;;0.57;;
47922;SDS011;33688;44.354;9.228;2023-04-03T00:30:53;0.57;;;0.50;;
47922;SDS011;33688;44.354;9.228;2023-04-03T00:33:19;0.35;;;0.35;;
47922;SDS011;33688;44.354;9.228;2023-04-03T00:35:49;0.57;;;0.57;;
47922;SDS011;33688;44.354;9.228;2023-04-03T00:38:16;0.32;;;0.32;;
47922;SDS011;33688;44.354;9.228;2023-04-03T00:40:43;0.47;;;0.47;;
47922;SDS011;33688;44.354;9.228;2023-04-03T00:43:17;0.90;;;0.60;;
47922;SDS011;33688;44.354;9.228;2023-04-03T00:45:50;0.60;;;0.50;;
47922;SDS011;33688;44.354;9.228;2023-04-03T00:48:21;0.63;;;0.40;;
47922;SDS011;33688;44.354;9.228;2023-04-03T00:50:57;0.43;;;0.40;;
47922;SDS011;33688;44.354;9.228;2023-04-03T00:53:25;0.55;;;0.50;;
47922;SDS011;33688;44.354;9.228;2023-04-03T00:56:00;0.70;;;0.40;;
47922;SDS011;33688;44.354;9.228;2023-04-03T00:58:33;0.60;;;0.50;;
47922;SDS011;33688;44.354;9.228;2023-04-03T01:01:18;0.40;;;0.35;;
47922;SDS011;33688;44.354;9.228;2023-04-03T01:06:16;0.50;;;0.40;;
47922;SDS011;33688;44.354;9.228;2023-04-03T01:08:47;0.43;;;0.40;;
47922;SDS011;33688;44.354;9.228;2023-04-03T01:11:15;0.55;;;0.40;;
47922;SDS011;33688;44.354;9.228;2023-04-03T01:13:41;0.35;;;0.35;;
47922;SDS011;33688;44.354;9.228;2023-04-03T01:16:07;0.75;;;0.40;;
47922;SDS011;33688;44.354;9.228;2023-04-03T01:18:34;0.40;;;0.40;;
47922;SDS011;33688;44.354;9.228;2023-04-03T01:21:50;0.73;;;0.55;;
47922;SDS011;33688;44.354;9.228;2023-04-03T01:24:25;0.45;;;0.45;;
47922;SDS011;33688;44.354;9.228;2023-04-03T01:27:06;0.88;;;0.50;;
47922;SDS011;33688;44.354;9.228;2023-04-03T01:29:35;0.40;;;0.40;;
47922;SDS011;33688;44.354;9.228;2023-04-03T01:32:02;0.73;;;0.40;;
47922;SDS011;33688;44.354;9.228;2023-04-03T01:34:29;0.50;;;0.40;;
47922;SDS011;33688;44.354;9.228;2023-04-03T01:36:56;0.40;;;0.40;;
47922;SDS011;33688;44.354;9.228;2023-04-03T01:39:22;0.30;;;0.30;;
47922;SDS011;33688;44.354;9.228;2023-04-03T01:41:48;0.40;;;0.38;;
47922;SDS011;33688;44.354;9.228;2023-04-03T01:44:21;0.55;;;0.40;;
47922;SDS011;33688;44.354;9.228;2023-04-03T01:46:48;1.08;;;0.65;;
47922;SDS011;33688;44.354;9.228;2023-04-03T01:49:14;0.80;;;0.45;;
47922;SDS011;33688;44.354;9.228;2023-04-03T01:51:41;0.65;;;0.47;;
47922;SDS011;33688;44.354;9.228;2023-04-03T01:54:08;0.43;;;0.43;;
47922;SDS011;33688;44.354;9.228;2023-04-03T01:56:34;0.38;;;0.38;;
47922;SDS011;33688;44.354;9.228;2023-04-03T01:59:00;0.40;;;0.40;;
47922;SDS011;33688;44.354;9.228;2023-04-03T02:01:26;0.82;;;0.50;;
47922;SDS011;33688;44.354;9.228;2023-04-03T02:03:53;0.30;;;0.30;;
47922;SDS011;33688;44.354;9.228;2023-04-03T02:06:18;0.32;;;0.20;;
47922;SDS011;33688;44.354;9.228;2023-04-03T02:08:44;0.47;;;0.47;;
47922;SDS011;33688;44.354;9.228;2023-04-03T02:11:10;0.43;;;0.43;;
47922;SDS011;33688;44.354;9.228;2023-04-03T02:13:36;0.28;;;0.28;;
47922;SDS011;33688;44.354;9.228;2023-04-03T02:16:09;0.50;;;0.38;;
47922;SDS011;33688;44.354;9.228;2023-04-03T02:18:36;0.25;;;0.25;;
47922;SDS011;33688;44.354;9.228;2023-04-03T02:21:02;0.47;;;0.47;;
47922;SDS011;33688;44.354;9.228;2023-04-03T02:23:28;0.63;;;0.40;;
47922;SDS011;33688;44.354;9.228;2023-04-03T02:26:02;0.63;;;0.45;;
47922;SDS011;33688;44.354;9.228;2023-04-03T02:28:31;0.40;;;0.40;;
47922;SDS011;33688;44.354;9.228;2023-04-03T02:30:57;0.40;;;0.40;;
47922;SDS011;33688;44.354;9.228;2023-04-03T02:33:22;0.30;;;0.30;;
47922;SDS011;33688;44.354;9.228;2023-04-03T02:35:52;0.70;;;0.40;;
47922;SDS011;33688;44.354;9.228;2023-04-03T02:38:20;0.57;;;0.57;;
47922;SDS011;33688;44.354;9.228;2023-04-03T02:40:47;0.40;;;0.40;;
47922;SDS011;33688;44.354;9.228;2023-04-03T02:43:13;0.52;;;0.50;;
47922;SDS011;33688;44.354;9.228;2023-04-03T02:45:39;0.63;;;0.40;;
47922;SDS011;33688;44.354;9.228;2023-04-03T02:48:05;0.30;;;0.30;;
47922;SDS011;33688;44.354;9.228;2023-04-03T02:50:32;0.47;;;0.35;;
47922;SDS011;33688;44.354;9.228;2023-04-03T02:52:58;0.35;;;0.35;;
47922;SDS011;33688;44.354;9.228;2023-04-03T02:55:24;0.50;;;0.50;;
47922;SDS011;33688;44.354;9.228;2023-04-03T02:57:53;0.30;;;0.30;;
47922;SDS011;33688;44.354;9.228;2023-04-03T03:00:19;0.43;;;0.40;;
47922;SDS011;33688;44.354;9.228;2023-04-03T03:02:45;0.35;;;0.35;;
47922;SDS011;33688;44.354;9.228;2023-04-03T03:05:11;0.32;;;0.32;;
47922;SDS011;33688;44.354;9.228;2023-04-03T03:07:38;0.45;;;0.30;;
47922;SDS011;33688;44.354;9.228;2023-04-03T03:10:03;0.52;;;0.40;;
47922;SDS011;33688;44.354;9.228;2023-04-03T03:12:30;0.30;;;0.30;;
47922;SDS011;33688;44.354;9.228;2023-04-03T03:14:55;0.45;;;0.40;;
47922;SDS011;33688;44.354;9.228;2023-04-03T03:17:21;0.40;;;0.40;;
47922;SDS011;33688;44.354;9.228;2023-04-03T03:19:47;0.95;;;0.40;;
47922;SDS011;33688;44.354;9.228;2023-04-03T03:22:13;0.32;;;0.30;;
47922;SDS011;33688;44.354;9.228;2023-04-03T03:24:38;0.70;;;0.43;;
47922;SDS011;33688;44.354;9.228;2023-04-03T03:27:04;0.30;;;0.30;;
47922;SDS011;33688;44.354;9.228;2023-04-03T03:29:30;0.40;;;0.40;;
47922;SDS011;33688;44.354;9.228;2023-04-03T03:31:56;0.40;;;0.30;;
47922;SDS011;33688;44.354;9.228;2023-04-03T03:34:22;0.28;;;0.28;;
47922;SDS011;33688;44.354;9.228;2023-04-03T03:36:48;0.50;;;0.30;;
47922;SDS011;33688;44.354;9.228;2023-04-03T03:39:14;0.40;;;0.40;;
47922;SDS011;33688;44.354;9.228;2023-04-03T03:41:40;0.40;;;0.40;;
47922;SDS011;33688;44.354;9.228;2023-04-03T03:44:06;0.25;;;0.25;;
47922;SDS011;33688;44.354;9.228;2023-04-03T03:46:32;0.68;;;0.40;;
47922;SDS011;33688;44.354;9.228;2023-04-03T03:48:58;0.30;;;0.30;;
47922;SDS011;33688;44.354;9.228;2023-04-03T03:51:24;0.32;;;0.30;;
47922;SDS011;33688;44.354;9.228;2023-04-03T03:53:50;0.52;;;0.43;;
47922;SDS011;33688;44.354;9.228;2023-04-03T03:56:18;0.20;;;0.20;;
47922;SDS011;33688;44.354;9.228;2023-04-03T03:58:44;0.40;;;0.32;;
47922;SDS011;33688;44.354;9.228;2023-04-03T04:01:11;0.50;;;0.50;;
47922;SDS011;33688;44.354;9.228;2023-04-03T04:03:41;0.28;;;0.28;;
47922;SDS011;33688;44.354;9.228;2023-04-03T04:06:11;0.73;;;0.60;;
47922;SDS011;33688;44.354;9.228;2023-04-03T04:08:37;0.50;;;0.50;;
47922;SDS011;33688;44.354;9.228;2023-04-03T04:11:06;0.30;;;0.30;;
47922;SDS011;33688;44.354;9.228;2023-04-03T04:13:33;0.70;;;0.47;;
47922;SDS011;33688;44.354;9.228;2023-04-03T04:15:59;0.43;;;0.38;;
47922;SDS011;33688;44.354;9.228;2023-04-03T04:18:26;0.45;;;0.45;;
47922;SDS011;33688;44.354;9.228;2023-04-03T04:20:51;0.35;;;0.35;;
47922;SDS011;33688;44.354;9.228;2023-04-03T04:23:18;0.35;;;0.30;;
47922;SDS011;33688;44.354;9.228;2023-04-03T04:25:46;0.50;;;0.50;;
47922;SDS011;33688;44.354;9.228;2023-04-03T04:28:16;0.50;;;0.30;;
47922;SDS011;33688;44.354;9.228;2023-04-03T04:30:42;1.00;;;0.30;;
47922;SDS011;33688;44.354;9.228;2023-04-03T04:33:09;0.70;;;0.30;;
47922;SDS011;33688;44.354;9.228;2023-04-03T04:35:35;0.40;;;0.38;;
47922;SDS011;33688;44.354;9.228;2023-04-03T04:38:02;0.57;;;0.40;;
47922;SDS011;33688;44.354;9.228;2023-04-03T04:40:28;1.65;;;0.38;;
47922;SDS011;33688;44.354;9.228;2023-04-03T04:42:54;0.30;;;0.30;;
47922;SDS011;33688;44.354;9.228;2023-04-03T04:45:20;0.32;;;0.32;;
47922;SDS011;33688;44.354;9.228;2023-04-03T04:47:46;0.40;;;0.40;;
47922;SDS011;33688;44.354;9.228;2023-04-03T04:50:13;0.30;;;0.30;;
47922;SDS011;33688;44.354;9.228;2023-04-03T04:52:40;0.40;;;0.30;;
47922;SDS011;33688;44.354;9.228;2023-04-03T04:55:07;0.40;;;0.40;;
47922;SDS011;33688;44.354;9.228;2023-04-03T04:57:33;0.30;;;0.30;;
47922;SDS011;33688;44.354;9.228;2023-04-03T05:00:00;0.47;;;0.40;;
47922;SDS011;33688;44.354;9.228;2023-04-03T05:02:25;0.70;;;0.38;;
47922;SDS011;33688;44.354;9.228;2023-04-03T05:04:53;0.25;;;0.25;;
47922;SDS011;33688;44.354;9.228;2023-04-03T05:07:24;0.30;;;0.30;;
47922;SDS011;33688;44.354;9.228;2023-04-03T05:09:50;0.63;;;0.30;;
47922;SDS011;33688;44.354;9.228;2023-04-03T05:12:17;0.20;;;0.20;;
47922;SDS011;33688;44.354;9.228;2023-04-03T05:14:48;0.40;;;0.40;;
47922;SDS011;33688;44.354;9.228;2023-04-03T05:17:15;0.47;;;0.40;;
47922;SDS011;33688;44.354;9.228;2023-04-03T05:19:46;0.20;;;0.20;;
47922;SDS011;33688;44.354;9.228;2023-04-03T05:22:11;0.30;;;0.30;;
47922;SDS011;33688;44.354;9.228;2023-04-03T05:24:38;0.40;;;0.40;;
47922;SDS011;33688;44.354;9.228;2023-04-03T05:27:04;0.40;;;0.30;;
47922;SDS011;33688;44.354;9.228;2023-04-03T05:29:33;0.40;;;0.30;;
47922;SDS011;33688;44.354;9.228;2023-04-03T05:32:00;0.30;;;0.30;;
47922;SDS011;33688;44.354;9.228;2023-04-03T05:34:26;0.30;;;0.30;;
47922;SDS011;33688;44.354;9.228;2023-04-03T05:36:54;0.30;;;0.30;;
47922;SDS011;33688;44.354;9.228;2023-04-03T05:39:21;0.38;;;0.38;;
47922;SDS011;33688;44.354;9.228;2023-04-03T05:41:48;0.32;;;0.28;;
47922;SDS011;33688;44.354;9.228;2023-04-03T05:44:14;0.30;;;0.30;;
47922;SDS011;33688;44.354;9.228;2023-04-03T05:46:43;0.32;;;0.32;;
47922;SDS011;33688;44.354;9.228;2023-04-03T05:49:10;0.40;;;0.35;;
47922;SDS011;33688;44.354;9.228;2023-04-03T05:51:36;0.63;;;0.28;;
47922;SDS011;33688;44.354;9.228;2023-04-03T05:54:17;0.73;;;0.50;;
47922;SDS011;33688;44.354;9.228;2023-04-03T05:56:55;0.40;;;0.40;;
47922;SDS011;33688;44.354;9.228;2023-04-03T05:59:22;0.30;;;0.30;;
47922;SDS011;33688;44.354;9.228;2023-04-03T06:01:50;0.30;;;0.30;;
47922;SDS011;33688;44.354;9.228;2023-04-03T06:04:18;0.20;;;0.20;;
47922;SDS011;33688;44.354;9.228;2023-04-03T06:06:49;0.40;;;0.40;;
47922;SDS011;33688;44.354;9.228;2023-04-03T06:09:23;0.47;;;0.47;;
47922;SDS011;33688;44.354;9.228;2023-04-03T06:14:18;0.30;;;0.30;;
47922;SDS011;33688;44.354;9.228;2023-04-03T06:16:44;0.47;;;0.20;;
47922;SDS011;33688;44.354;9.228;2023-04-03T06:19:10;0.65;;;0.55;;
47922;SDS011;33688;44.354;9.228;2023-04-03T06:21:41;0.20;;;0.20;;
47922;SDS011;33688;44.354;9.228;2023-04-03T06:24:07;2.35;;;0.55;;
47922;SDS011;33688;44.354;9.228;2023-04-03T06:26:39;0.40;;;0.40;;
47922;SDS011;33688;44.354;9.228;2023-04-03T06:29:04;1.17;;;0.47;;
47922;SDS011;33688;44.354;9.228;2023-04-03T06:31:30;0.40;;;0.30;;
47922;SDS011;33688;44.354;9.228;2023-04-03T06:33:56;0.38;;;0.38;;
47922;SDS011;33688;44.354;9.228;2023-04-03T06:36:22;0.35;;;0.30;;
47922;SDS011;33688;44.354;9.228;2023-04-03T06:38:48;0.45;;;0.40;;
47922;SDS011;33688;44.354;9.228;2023-04-03T06:41:14;3.10;;;0.55;;
47922;SDS011;33688;44.354;9.228;2023-04-03T06:43:42;0.30;;;0.30;;
47922;SDS011;33688;44.354;9.228;2023-04-03T06:46:20;1.67;;;0.50;;
47922;SDS011;33688;44.354;9.228;2023-04-03T06:48:47;0.50;;;0.50;;
47922;SDS011;33688;44.354;9.228;2023-04-03T06:51:18;0.60;;;0.50;;
47922;SDS011;33688;44.354;9.228;2023-04-03T06:53:51;0.70;;;0.45;;
47922;SDS011;33688;44.354;9.228;2023-04-03T06:56:19;0.52;;;0.45;;
47922;SDS011;33688;44.354;9.228;2023-04-03T06:58:45;0.80;;;0.50;;
47922;SDS011;33688;44.354;9.228;2023-04-03T07:01:12;0.75;;;0.45;;
47922;SDS011;33688;44.354;9.228;2023-04-03T07:03:41;0.32;;;0.32;;
47922;SDS011;33688;44.354;9.228;2023-04-03T07:06:09;2.78;;;0.32;;
47922;SDS011;33688;44.354;9.228;2023-04-03T07:08:38;0.50;;;0.50;;
47922;SDS011;33688;44.354;9.228;2023-04-03T07:11:05;4.30;;;0.50;;
47922;SDS011;33688;44.354;9.228;2023-04-03T07:13:31;0.85;;;0.43;;
47922;SDS011;33688;44.354;9.228;2023-04-03T07:15:57;0.90;;;0.50;;
47922;SDS011;33688;44.354;9.228;2023-04-03T07:18:24;0.55;;;0.30;;
47922;SDS011;33688;44.354;9.228;2023-04-03T07:20:50;1.33;;;0.55;;
47922;SDS011;33688;44.354;9.228;2023-04-03T07:23:16;1.15;;;0.50;;
47922;SDS011;33688;44.354;9.228;2023-04-03T07:25:46;3.63;;;0.50;;
47922;SDS011;33688;44.354;9.228;2023-04-03T07:28:15;2.92;;;0.40;;
47922;SDS011;33688;44.354;9.228;2023-04-03T07:30:46;0.30;;;0.20;;
47922;SDS011;33688;44.354;9.228;2023-04-03T07:33:15;1.00;;;0.52;;
47922;SDS011;33688;44.354;9.228;2023-04-03T07:35:43;1.40;;;0.60;;
47922;SDS011;33688;44.354;9.228;2023-04-03T07:38:10;4.10;;;0.50;;
47922;SDS011;33688;44.354;9.228;2023-04-03T07:40:37;0.75;;;0.47;;
47922;SDS011;33688;44.354;9.228;2023-04-03T07:43:05;5.35;;;0.75;;
47922;SDS011;33688;44.354;9.228;2023-04-03T07:45:32;1.50;;;0.60;;
47922;SDS011;33688;44.354;9.228;2023-04-03T07:48:00;0.50;;;0.35;;
47922;SDS011;33688;44.354;9.228;2023-04-03T07:50:26;3.72;;;0.65;;
47922;SDS011;33688;44.354;9.228;2023-04-03T07:52:53;3.22;;;0.40;;
47922;SDS011;33688;44.354;9.228;2023-04-03T07:55:21;0.75;;;0.47;;
47922;SDS011;33688;44.354;9.228;2023-04-03T07:57:47;4.82;;;0.40;;
47922;SDS011;33688;44.354;9.228;2023-04-03T08:00:13;0.77;;;0.55;;
47922;SDS011;33688;44.354;9.228;2023-04-03T08:02:40;1.05;;;0.68;;
47922;SDS011;33688;44.354;9.228;2023-04-03T08:05:06;3.08;;;0.45;;
47922;SDS011;33688;44.354;9.228;2023-04-03T08:07:32;0.65;;;0.55;;
47922;SDS011;33688;44.354;9.228;2023-04-03T08:09:58;0.82;;;0.45;;
47922;SDS011;33688;44.354;9.228;2023-04-03T08:12:23;2.03;;;0.50;;
47922;SDS011;33688;44.354;9.228;2023-04-03T08:14:49;0.73;;;0.50;;
47922;SDS011;33688;44.354;9.228;2023-04-03T08:17:15;0.30;;;0.30;;
47922;SDS011;33688;44.354;9.228;2023-04-03T08:19:41;0.77;;;0.30;;
47922;SDS011;33688;44.354;9.228;2023-04-03T08:22:06;6.93;;;0.88;;
47922;SDS011;33688;44.354;9.228;2023-04-03T08:24:33;1.05;;;0.47;;
47922;SDS011;33688;44.354;9.228;2023-04-03T08:26:59;3.15;;;0.68;;
47922;SDS011;33688;44.354;9.228;2023-04-03T08:29:26;4.00;;;0.60;;
47922;SDS011;33688;44.354;9.228;2023-04-03T08:31:52;1.42;;;0.52;;
47922;SDS011;33688;44.354;9.228;2023-04-03T08:34:18;1.00;;;0.35;;
47922;SDS011;33688;44.354;9.228;2023-04-03T08:36:46;0.70;;;0.40;;
47922;SDS011;33688;44.354;9.228;2023-04-03T08:39:12;0.90;;;0.45;;
47922;SDS011;33688;44.354;9.228;2023-04-03T08:41:40;1.10;;;0.63;;
47922;SDS011;33688;44.354;9.228;2023-04-03T08:50:20;2.20;;;0.60;;
47922;SDS011;33688;44.354;9.228;2023-04-03T08:58:06;3.08;;;0.70;;
47922;SDS011;33688;44.354;9.228;2023-04-03T09:00:46;9.95;;;1.00;;
47922;SDS011;33688;44.354;9.228;2023-04-03T09:03:18;2.40;;;0.52;;
47922;SDS011;33688;44.354;9.228;2023-04-03T09:05:53;2.50;;;0.90;;
47922;SDS011;33688;44.354;9.228;2023-04-03T09:08:28;0.63;;;0.53;;
47922;SDS011;33688;44.354;9.228;2023-04-03T09:14:01;0.77;;;0.55;;
47922;SDS011;33688;44.354;9.228;2023-04-03T09:24:43;0.98;;;0.40;;
47922;SDS011;33688;44.354;9.228;2023-04-03T09:27:14;3.20;;;0.95;;
47922;SDS011;33688;44.354;9.228;2023-04-03T09:29:40;1.30;;;0.73;;
47922;SDS011;33688;44.354;9.228;2023-04-03T09:37:53;5.05;;;0.70;;
47922;SDS011;33688;44.354;9.228;2023-04-03T09:43:51;3.15;;;0.93;;
47922;SDS011;33688;44.354;9.228;2023-04-03T09:46:25;2.15;;;0.47;;
47922;SDS011;33688;44.354;9.228;2023-04-03T09:49:00;1.23;;;0.68;;
47922;SDS011;33688;44.354;9.228;2023-04-03T09:51:29;1.38;;;0.55;;
47922;SDS011;33688;44.354;9.228;2023-04-03T09:53:57;0.98;;;0.60;;
47922;SDS011;33688;44.354;9.228;2023-04-03T09:56:27;3.67;;;0.60;;
47922;SDS011;33688;44.354;9.228;2023-04-03T10:01:28;0.82;;;0.40;;
47922;SDS011;33688;44.354;9.228;2023-04-03T10:04:18;2.92;;;0.85;;
47922;SDS011;33688;44.354;9.228;2023-04-03T10:06:45;1.83;;;0.50;;
47922;SDS011;33688;44.354;9.228;2023-04-03T10:14:35;1.50;;;0.50;;
47922;SDS011;33688;44.354;9.228;2023-04-03T10:23:22;0.82;;;0.57;;
47922;SDS011;33688;44.354;9.228;2023-04-03T10:35:12;1.42;;;0.70;;
47922;SDS011;33688;44.354;9.228;2023-04-03T10:38:01;4.68;;;1.08;;
47922;SDS011;33688;44.354;9.228;2023-04-03T10:43:44;0.73;;;0.52;;
47922;SDS011;33688;44.354;9.228;2023-04-03T10:46:43;0.93;;;0.65;;
47922;SDS011;33688;44.354;9.228;2023-04-03T10:49:38;0.70;;;0.70;;
47922;SDS011;33688;44.354;9.228;2023-04-03T10:55:24;0.93;;;0.40;;
47922;SDS011;33688;44.354;9.228;2023-04-03T10:58:03;1.75;;;0.68;;
47922;SDS011;33688;44.354;9.228;2023-04-03T11:03:08;1.88;;;0.73;;
47922;SDS011;33688;44.354;9.228;2023-04-03T11:05:49;1.53;;;0.93;;
47922;SDS011;33688;44.354;9.228;2023-04-03T11:11:13;0.50;;;0.40;;
47922;SDS011;33688;44.354;9.228;2023-04-03T11:13:55;2.70;;;0.65;;
47922;SDS011;33688;44.354;9.228;2023-04-03T11:16:29;4.70;;;0.77;;
47922;SDS011;33688;44.354;9.228;2023-04-03T11:24:36;2.95;;;0.55;;
47922;SDS011;33688;44.354;9.228;2023-04-03T11:27:08;0.65;;;0.50;;
47922;SDS011;33688;44.354;9.228;2023-04-03T11:29:48;1.00;;;0.57;;
47922;SDS011;33688;44.354;9.228;2023-04-03T11:35:01;1.80;;;1.15;;
47922;SDS011;33688;44.354;9.228;2023-04-03T11:40:03;1.38;;;0.75;;
47922;SDS011;33688;44.354;9.228;2023-04-03T11:45:53;4.90;;;0.77;;
47922;SDS011;33688;44.354;9.228;2023-04-03T11:51:00;0.63;;;0.32;;
47922;SDS011;33688;44.354;9.228;2023-04-03T11:53:46;0.57;;;0.50;;
47922;SDS011;33688;44.354;9.228;2023-04-03T11:56:34;0.47;;;0.40;;
47922;SDS011;33688;44.354;9.228;2023-04-03T12:04:26;2.47;;;0.70;;
47922;SDS011;33688;44.354;9.228;2023-04-03T12:06:54;0.73;;;0.50;;
47922;SDS011;33688;44.354;9.228;2023-04-03T12:09:35;1.88;;;0.60;;
47922;SDS011;33688;44.354;9.228;2023-04-03T12:12:36;1.25;;;0.50;;
47922;SDS011;33688;44.354;9.228;2023-04-03T12:15:25;2.03;;;0.60;;
47922;SDS011;33688;44.354;9.228;2023-04-03T12:21:10;2.60;;;0.60;;
47922;SDS011;33688;44.354;9.228;2023-04-03T12:26:35;2.83;;;0.57;;
47922;SDS011;33688;44.354;9.228;2023-04-03T12:35:39;2.45;;;1.08;;
47922;SDS011;33688;44.354;9.228;2023-04-03T12:41:51;1.20;;;0.60;;
47922;SDS011;33688;44.354;9.228;2023-04-03T12:47:21;1.42;;;0.60;;
47922;SDS011;33688;44.354;9.228;2023-04-03T12:50:01;0.60;;;0.60;;
47922;SDS011;33688;44.354;9.228;2023-04-03T12:52:41;0.57;;;0.52;;
47922;SDS011;33688;44.354;9.228;2023-04-03T12:55:16;0.40;;;0.40;;
47922;SDS011;33688;44.354;9.228;2023-04-03T12:57:45;2.17;;;0.60;;
47922;SDS011;33688;44.354;9.228;2023-04-03T13:00:28;1.08;;;0.60;;
47922;SDS011;33688;44.354;9.228;2023-04-03T13:03:04;2.05;;;0.65;;
47922;SDS011;33688;44.354;9.228;2023-04-03T13:05:45;6.80;;;0.60;;
47922;SDS011;33688;44.354;9.228;2023-04-03T13:08:12;2.00;;;0.45;;
47922;SDS011;33688;44.354;9.228;2023-04-03T13:10:49;4.22;;;0.60;;
47922;SDS011;33688;44.354;9.228;2023-04-03T13:13:17;1.73;;;0.50;;
47922;SDS011;33688;44.354;9.228;2023-04-03T13:15:45;3.67;;;0.40;;
47922;SDS011;33688;44.354;9.228;2023-04-03T13:21:28;3.63;;;0.50;;
47922;SDS011;33688;44.354;9.228;2023-04-03T13:23:57;1.33;;;0.63;;
47922;SDS011;33688;44.354;9.228;2023-04-03T13:26:29;0.90;;;0.65;;
47922;SDS011;33688;44.354;9.228;2023-04-03T13:29:02;4.35;;;0.50;;
47922;SDS011;33688;44.354;9.228;2023-04-03T13:31:35;2.85;;;0.50;;
47922;SDS011;33688;44.354;9.228;2023-04-03T13:34:06;1.58;;;0.50;;
47922;SDS011;33688;44.354;9.228;2023-04-03T13:36:37;5.28;;;0.93;;
47922;SDS011;33688;44.354;9.228;2023-04-03T13:39:25;3.22;;;0.60;;
47922;SDS011;33688;44.354;9.228;2023-04-03T13:41:58;2.50;;;0.52;;
47922;SDS011;33688;44.354;9.228;2023-04-03T13:44:30;2.33;;;0.65;;
47922;SDS011;33688;44.354;9.228;2023-04-03T13:49:35;2.63;;;0.68;;
47922;SDS011;33688;44.354;9.228;2023-04-03T13:54:56;4.80;;;1.13;;
47922;SDS011;33688;44.354;9.228;2023-04-03T14:03:51;2.05;;;0.70;;
47922;SDS011;33688;44.354;9.228;2023-04-03T14:06:19;2.55;;;0.70;;
47922;SDS011;33688;44.354;9.228;2023-04-03T14:08:46;1.48;;;0.73;;
47922;SDS011;33688;44.354;9.228;2023-04-03T14:11:14;0.93;;;0.60;;
47922;SDS011;33688;44.354;9.228;2023-04-03T14:13:43;1.95;;;0.70;;
47922;SDS011;33688;44.354;9.228;2023-04-03T14:16:12;0.73;;;0.55;;
47922;SDS011;33688;44.354;9.228;2023-04-03T14:18:49;5.78;;;1.00;;
47922;SDS011;33688;44.354;9.228;2023-04-03T14:21:16;3.78;;;0.88;;
47922;SDS011;33688;44.354;9.228;2023-04-03T14:23:44;4.57;;;0.60;;
47922;SDS011;33688;44.354;9.228;2023-04-03T14:26:15;8.57;;;0.68;;
47922;SDS011;33688;44.354;9.228;2023-04-03T14:28:46;2.05;;;0.60;;
47922;SDS011;33688;44.354;9.228;2023-04-03T14:31:17;9.80;;;0.88;;
47922;SDS011;33688;44.354;9.228;2023-04-03T14:33:44;2.97;;;0.30;;
47922;SDS011;33688;44.354;9.228;2023-04-03T14:36:14;1.33;;;0.47;;
47922;SDS011;33688;44.354;9.228;2023-04-03T14:38:46;3.40;;;0.77;;
47922;SDS011;33688;44.354;9.228;2023-04-03T14:41:15;4.32;;;0.80;;
47922;SDS011;33688;44.354;9.228;2023-04-03T14:43:44;2.70;;;1.08;;
47922;SDS011;33688;44.354;9.228;2023-04-03T14:46:16;4.72;;;0.65;;
47922;SDS011;33688;44.354;9.228;2023-04-03T14:48:46;1.63;;;0.70;;
47922;SDS011;33688;44.354;9.228;2023-04-03T14:51:14;3.03;;;0.65;;
47922;SDS011;33688;44.354;9.228;2023-04-03T14:53:41;0.90;;;0.60;;
47922;SDS011;33688;44.354;9.228;2023-04-03T14:56:14;0.82;;;0.68;;
47922;SDS011;33688;44.354;9.228;2023-04-03T14:58:43;3.25;;;0.68;;
47922;SDS011;33688;44.354;9.228;2023-04-03T15:01:09;2.03;;;0.68;;
47922;SDS011;33688;44.354;9.228;2023-04-03T15:03:37;2.40;;;0.95;;
47922;SDS011;33688;44.354;9.228;2023-04-03T15:06:04;2.80;;;0.70;;
47922;SDS011;33688;44.354;9.228;2023-04-03T15:08:30;1.17;;;0.95;;
47922;SDS011;33688;44.354;9.228;2023-04-03T15:10:56;2.33;;;0.73;;
47922;SDS011;33688;44.354;9.228;2023-04-03T15:13:23;1.75;;;0.90;;
47922;SDS011;33688;44.354;9.228;2023-04-03T15:15:50;4.25;;;0.73;;
47922;SDS011;33688;44.354;9.228;2023-04-03T15:18:21;1.95;;;0.80;;
47922;SDS011;33688;44.354;9.228;2023-04-03T15:20:53;0.95;;;0.70;;
47922;SDS011;33688;44.354;9.228;2023-04-03T15:23:20;1.95;;;0.85;;
47922;SDS011;33688;44.354;9.228;2023-04-03T15:25:51;1.17;;;0.95;;
47922;SDS011;33688;44.354;9.228;2023-04-03T15:28:36;3.05;;;0.93;;
47922;SDS011;33688;44.354;9.228;2023-04-03T15:31:05;0.90;;;0.80;;
47922;SDS011;33688;44.354;9.228;2023-04-03T15:33:32;1.40;;;0.90;;
47922;SDS011;33688;44.354;9.228;2023-04-03T15:36:00;1.40;;;0.75;;
47922;SDS011;33688;44.354;9.228;2023-04-03T15:38:26;1.45;;;1.20;;
47922;SDS011;33688;44.354;9.228;2023-04-03T15:40:52;2.65;;;0.80;;
47922;SDS011;33688;44.354;9.228;2023-04-03T15:43:21;1.38;;;0.80;;
47922;SDS011;33688;44.354;9.228;2023-04-03T15:45:47;2.55;;;1.05;;
47922;SDS011;33688;44.354;9.228;2023-04-03T15:48:17;1.58;;;0.77;;
47922;SDS011;33688;44.354;9.228;2023-04-03T15:50:43;0.82;;;0.60;;
47922;SDS011;33688;44.354;9.228;2023-04-03T15:53:09;1.85;;;0.75;;
47922;SDS011;33688;44.354;9.228;2023-04-03T15:55:36;3.03;;;0.90;;
47922;SDS011;33688;44.354;9.228;2023-04-03T15:58:03;1.75;;;1.15;;
47922;SDS011;33688;44.354;9.228;2023-04-03T16:00:29;1.48;;;0.88;;
47922;SDS011;33688;44.354;9.228;2023-04-03T16:02:58;2.33;;;0.85;;
47922;SDS011;33688;44.354;9.228;2023-04-03T16:05:29;2.47;;;1.00;;
47922;SDS011;33688;44.354;9.228;2023-04-03T16:07:57;1.83;;;0.93;;
47922;SDS011;33688;44.354;9.228;2023-04-03T16:10:27;2.45;;;1.27;;
47922;SDS011;33688;44.354;9.228;2023-04-03T16:12:54;3.78;;;0.93;;
47922;SDS011;33688;44.354;9.228;2023-04-03T16:15:21;6.90;;;0.90;;
47922;SDS011;33688;44.354;9.228;2023-04-03T16:17:49;2.63;;;0.88;;
47922;SDS011;33688;44.354;9.228;2023-04-03T16:20:16;6.82;;;0.75;;
47922;SDS011;33688;44.354;9.228;2023-04-03T16:22:43;1.75;;;0.75;;
47922;SDS011;33688;44.354;9.228;2023-04-03T16:25:11;1.75;;;0.82;;
47922;SDS011;33688;44.354;9.228;2023-04-03T16:27:37;1.33;;;0.80;;
47922;SDS011;33688;44.354;9.228;2023-04-03T16:30:05;5.45;;;0.80;;
47922;SDS011;33688;44.354;9.228;2023-04-03T16:32:32;3.92;;;1.20;;
47922;SDS011;33688;44.354;9.228;2023-04-03T16:34:59;3.38;;;0.70;;
47922;SDS011;33688;44.354;9.228;2023-04-03T16:37:25;2.15;;;0.80;;
47922;SDS011;33688;44.354;9.228;2023-04-03T16:39:51;2.72;;;1.00;;
47922;SDS011;33688;44.354;9.228;2023-04-03T16:42:17;1.13;;;0.70;;
47922;SDS011;33688;44.354;9.228;2023-04-03T16:44:43;2.25;;;0.90;;
47922;SDS011;33688;44.354;9.228;2023-04-03T16:47:09;2.35;;;1.08;;
47922;SDS011;33688;44.354;9.228;2023-04-03T16:49:35;2.20;;;1.00;;
47922;SDS011;33688;44.354;9.228;2023-04-03T16:52:02;2.55;;;1.17;;
47922;SDS011;33688;44.354;9.228;2023-04-03T16:54:30;4.55;;;0.95;;
47922;SDS011;33688;44.354;9.228;2023-04-03T16:56:57;0.80;;;0.70;;
47922;SDS011;33688;44.354;9.228;2023-04-03T16:59:23;4.05;;;0.70;;
47922;SDS011;33688;44.354;9.228;2023-04-03T17:01:49;1.65;;;0.90;;
47922;SDS011;33688;44.354;9.228;2023-04-03T17:04:15;1.48;;;0.88;;
47922;SDS011;33688;44.354;9.228;2023-04-03T17:06:43;1.65;;;0.82;;
47922;SDS011;33688;44.354;9.228;2023-04-03T17:09:09;1.13;;;0.85;;